Time;durP1;ratioP1;P1;durP2;ratioP2;P2;SDS_P1;SDS_P2;PMS_P1;PMS_P2;Temp;Humidity;BMP_temperature;BMP_pressure;BME280_temperature;BME280_humidity;BME280_pressure;Samples;Min_cycle;Max_cycle;Signal;HPM_P1;HPM_P2
2023/06/08 00:00:39;;;;;;;;;20.40;19.20;;;;;18.31;52.24;99231.63;5066891;28;9601;-79
2023/06/08 00:03:29;;;;;;;;;18.60;18.60;;;;;18.27;52.64;99230.06;5052542;28;8860;-78
2023/06/08 00:05:59;;;;;;;;;19.00;19.00;;;;;18.19;52.50;99222.53;5032055;28;8938;-78
2023/06/08 00:08:30;;;;;;;;;18.80;18.80;;;;;18.22;52.42;99226.84;5066396;28;8879;-78
2023/06/08 00:10:59;;;;;;;;;20.40;19.00;;;;;18.25;52.41;99224.84;5067075;28;9629;-78
2023/06/08 00:13:28;;;;;;;;;19.00;19.00;;;;;18.28;52.11;99229.97;5033941;28;8948;-79
2023/06/08 00:16:00;;;;;;;;;13.60;13.60;;;;;18.31;52.03;99229.81;5083107;28;9814;-78
2023/06/08 00:18:30;;;;;;;;;16.80;16.00;;;;;18.30;52.01;99224.56;5049769;28;8866;-80
2023/06/08 00:21:00;;;;;;;;;18.00;18.00;;;;;18.18;52.35;99210.19;5061513;28;9013;-79
2023/06/08 00:23:31;;;;;;;;;16.80;16.40;;;;;18.19;52.61;99224.34;5062957;28;8877;-79
2023/06/08 00:26:00;;;;;;;;;16.00;16.00;;;;;18.16;52.38;99212.94;5046273;28;8845;-81
2023/06/08 00:28:29;;;;;;;;;17.80;16.80;;;;;18.14;52.52;99211.31;5046532;28;8857;-80
2023/06/08 00:30:58;;;;;;;;;17.60;17.60;;;;;18.10;52.64;99207.97;5013231;28;9020;-79
2023/06/08 00:33:27;;;;;;;;;18.00;16.60;;;;;17.98;53.10;99220.13;5049182;28;8845;-78
2023/06/08 00:35:55;;;;;;;;;25.00;22.60;;;;;17.86;53.17;99212.84;5068085;28;8862;-78
2023/06/08 00:38:25;;;;;;;;;19.20;17.20;;;;;17.97;52.96;99217.56;5106994;28;8911;-78
2023/06/08 00:40:55;;;;;;;;;17.40;16.20;;;;;17.93;52.78;99214.22;5069977;28;9767;-79
2023/06/08 00:43:24;;;;;;;;;19.00;17.20;;;;;17.83;53.30;99206.84;5067802;28;9785;-80
2023/06/08 00:45:52;;;;;;;;;19.40;17.20;;;;;17.88;52.95;99213.63;5085613;28;8861;-79
2023/06/08 00:48:22;;;;;;;;;16.40;15.40;;;;;17.83;52.92;99207.69;5068300;28;8876;-76
2023/06/08 00:50:51;;;;;;;;;17.40;17.20;;;;;17.93;52.65;99208.03;5087639;28;8854;-79
2023/06/08 00:53:21;;;;;;;;;15.60;13.80;;;;;17.84;53.07;99209.41;5087977;28;8848;-79
2023/06/08 00:55:52;;;;;;;;;16.20;16.20;;;;;17.85;52.82;99208.47;5070018;28;8846;-77
2023/06/08 00:58:22;;;;;;;;;18.80;17.60;;;;;17.90;52.63;99208.22;5050758;28;8877;-80
2023/06/08 01:00:52;;;;;;;;;19.20;19.20;;;;;17.91;52.67;99201.94;5066983;28;8842;-77
2023/06/08 01:03:21;;;;;;;;;20.00;18.80;;;;;17.94;52.49;99205.28;5068788;28;8884;-78
2023/06/08 01:05:52;;;;;;;;;18.80;18.40;;;;;18.00;52.31;99198.75;5086395;28;8870;-78
2023/06/08 01:08:44;;;;;;;;;16.40;15.80;;;;;18.06;52.32;99200.25;5067226;28;8838;-79
2023/06/08 01:11:26;;;;;;;;;17.20;16.80;;;;;18.00;52.70;99205.88;5066491;28;8896;-78
2023/06/08 01:14:06;;;;;;;;;17.40;17.40;;;;;17.95;52.82;99200.84;5067882;28;8834;-79
2023/06/08 01:16:44;;;;;;;;;15.80;14.40;;;;;18.01;52.69;99203.16;5066636;28;9643;-77
2023/06/08 01:19:23;;;;;;;;;16.40;16.00;;;;;18.02;52.74;99196.00;5066779;28;8862;-77
2023/06/08 01:22:07;;;;;;;;;17.40;16.40;;;;;18.07;52.64;99191.31;5103335;27;8868;-80
2023/06/08 01:24:38;;;;;;;;;16.40;16.40;;;;;18.01;52.81;99196.97;5062371;28;8854;-81
2023/06/08 01:27:09;;;;;;;;;14.60;14.40;;;;;17.99;53.06;99191.75;5084201;28;8858;-80
2023/06/08 01:29:41;;;;;;;;;15.00;14.40;;;;;17.90;53.48;99193.13;5066985;28;8846;-80
2023/06/08 01:32:10;;;;;;;;;15.80;15.80;;;;;17.90;53.68;99201.09;5084792;28;8935;-79
2023/06/08 01:34:40;;;;;;;;;17.00;17.00;;;;;17.83;54.09;99196.22;5066413;28;8846;-79
2023/06/08 01:37:16;;;;;;;;;16.20;15.80;;;;;17.89;54.17;99191.41;5081685;28;8844;-78
2023/06/08 01:39:55;;;;;;;;;15.60;15.60;;;;;17.98;54.07;99195.34;5086553;28;8876;-79
2023/06/08 01:42:25;;;;;;;;;15.60;15.00;;;;;17.92;54.27;99199.19;5086524;28;9013;-78
2023/06/08 01:44:58;;;;;;;;;15.20;14.40;;;;;18.03;54.12;99200.41;5088228;28;8877;-79
2023/06/08 01:47:35;;;;;;;;;14.40;14.40;;;;;18.13;53.65;99194.47;5086584;28;8852;-78
2023/06/08 01:50:06;;;;;;;;;16.20;14.80;;;;;18.12;53.64;99199.91;5070129;28;8863;-78
2023/06/08 01:52:36;;;;;;;;;16.00;14.60;;;;;18.14;53.51;99196.19;5080141;28;9584;-80
2023/06/08 01:55:14;;;;;;;;;17.00;14.80;;;;;18.29;53.28;99189.13;5067997;28;8897;-81
2023/06/08 01:57:43;;;;;;;;;14.20;13.80;;;;;18.16;53.50;99194.31;5031881;28;8866;-80
2023/06/08 02:00:15;;;;;;;;;15.80;13.60;;;;;18.20;53.43;99197.66;5031981;28;8866;-80
2023/06/08 02:02:44;;;;;;;;;17.40;15.80;;;;;18.15;53.68;99194.38;5066209;28;8873;-80
2023/06/08 02:05:16;;;;;;;;;17.80;14.80;;;;;18.26;53.25;99194.63;5044589;28;8853;-79
2023/06/08 02:07:44;;;;;;;;;16.40;16.40;;;;;18.28;53.18;99195.38;5044909;28;8858;-80
2023/06/08 02:10:16;;;;;;;;;14.40;13.80;;;;;18.34;53.05;99196.84;5024509;28;8872;-79
2023/06/08 02:12:45;;;;;;;;;13.80;13.80;;;;;18.34;53.12;99204.81;5031403;28;8994;-81
2023/06/08 02:15:14;;;;;;;;;16.20;16.20;;;;;18.28;53.13;99195.38;4992179;28;8864;-81
2023/06/08 02:17:45;;;;;;;;;14.60;13.60;;;;;18.27;53.35;99203.44;5024568;28;8892;-78
2023/06/08 02:20:14;;;;;;;;;13.40;13.40;;;;;18.26;53.28;99199.09;5009165;28;8961;-78
2023/06/08 02:22:45;;;;;;;;;12.60;11.60;;;;;18.25;53.36;99197.38;5045108;28;8865;-78
2023/06/08 02:25:16;;;;;;;;;15.40;15.40;;;;;18.17;53.45;99203.13;4999916;28;8902;-79
2023/06/08 02:27:44;;;;;;;;;15.20;14.00;;;;;18.24;53.33;99195.66;5027110;28;8907;-78
2023/06/08 02:30:15;;;;;;;;;13.60;13.60;;;;;18.27;53.26;99198.13;5008918;28;8975;-78
2023/06/08 02:32:45;;;;;;;;;15.00;14.80;;;;;18.31;53.19;99192.56;5026157;28;8856;-78
2023/06/08 02:35:15;;;;;;;;;14.20;12.60;;;;;18.33;53.13;99197.78;4990684;28;8849;-81
2023/06/08 02:37:46;;;;;;;;;14.20;13.40;;;;;18.34;53.00;99192.34;5034839;28;8861;-78
2023/06/08 02:40:17;;;;;;;;;13.00;12.80;;;;;18.32;53.12;99186.28;5084658;28;8866;-81
2023/06/08 02:42:46;;;;;;;;;14.20;13.60;;;;;18.38;53.08;99189.53;5087566;28;8881;-79
2023/06/08 02:45:19;;;;;;;;;14.20;14.00;;;;;18.32;53.01;99186.28;5021838;28;8824;-78
2023/06/08 02:47:49;;;;;;;;;14.00;13.20;;;;;18.40;52.79;99184.97;5047849;28;8821;-80
2023/06/08 02:50:19;;;;;;;;;13.40;13.40;;;;;18.42;52.77;99175.97;5045872;28;8868;-78
2023/06/08 02:52:48;;;;;;;;;13.60;13.60;;;;;18.35;52.98;99190.56;5044245;28;8873;-77
2023/06/08 02:55:18;;;;;;;;;15.00;12.60;;;;;18.38;52.93;99187.72;5044599;28;8874;-79
2023/06/08 02:57:48;;;;;;;;;11.80;11.80;;;;;18.38;52.72;99189.53;5043017;28;8820;-79
2023/06/08 03:00:20;;;;;;;;;12.60;12.60;;;;;18.40;52.76;99182.31;5068626;28;8933;-78
2023/06/08 03:03:03;;;;;;;;;11.20;11.20;;;;;18.43;52.74;99182.13;5070415;28;8852;-78
2023/06/08 03:05:39;;;;;;;;;15.80;15.80;;;;;18.43;52.54;99182.13;5035612;28;8828;-79
2023/06/08 03:08:09;;;;;;;;;14.80;14.80;;;;;18.42;52.62;99186.63;5047981;28;9646;-80
2023/06/08 03:10:40;;;;;;;;;13.60;13.60;;;;;18.45;52.49;99178.44;5047853;28;8880;-77
2023/06/08 03:13:11;;;;;;;;;13.60;13.40;;;;;18.46;52.48;99184.59;5027801;28;8863;-79
2023/06/08 03:15:41;;;;;;;;;29.00;29.00;;;;;18.44;52.41;99176.72;5016970;28;8842;-78
2023/06/08 03:18:10;;;;;;;;;12.40;11.40;;;;;18.43;52.42;99182.13;5034383;28;8865;-78
2023/06/08 03:20:40;;;;;;;;;14.40;13.60;;;;;18.47;52.42;99184.50;5064634;28;9664;-80
2023/06/08 03:23:17;;;;;;;;;14.00;13.40;;;;;18.41;52.39;99184.88;5087507;28;8857;-77
2023/06/08 03:25:49;;;;;;;;;14.00;13.40;;;;;18.47;52.49;99181.00;5070724;28;8845;-79
2023/06/08 03:28:19;;;;;;;;;11.00;11.00;;;;;18.62;52.14;99181.91;5031181;28;8978;-79
2023/06/08 03:30:49;;;;;;;;;13.00;13.00;;;;;18.62;52.14;99184.56;5083692;28;8828;-79
2023/06/08 03:33:22;;;;;;;;;13.40;13.40;;;;;18.76;51.68;99176.56;5067047;28;8868;-78
2023/06/08 03:35:57;;;;;;;;;18.40;16.40;;;;;18.85;51.79;99183.19;5068240;28;9034;-81
2023/06/08 03:38:33;;;;;;;;;21.20;20.60;;;;;18.91;51.45;99180.13;5087728;28;8920;-81
2023/06/08 03:41:08;;;;;;;;;14.00;14.00;;;;;19.01;51.18;99188.44;5070314;28;8845;-77
2023/06/08 03:43:37;;;;;;;;;14.80;14.80;;;;;19.04;50.95;99178.44;5087287;28;8828;-79
2023/06/08 03:46:07;;;;;;;;;15.40;15.00;;;;;19.08;51.00;99173.75;5105596;28;8864;-77
2023/06/08 03:48:36;;;;;;;;;15.40;12.00;;;;;19.16;50.69;99175.94;5089719;28;8859;-78
2023/06/08 03:51:06;;;;;;;;;11.20;10.20;;;;;19.13;50.64;99175.19;5068402;28;9594;-78
2023/06/08 03:53:37;;;;;;;;;11.00;10.80;;;;;19.14;50.62;99176.06;5071923;28;8881;-78
2023/06/08 03:56:07;;;;;;;;;10.00;10.00;;;;;19.22;50.39;99180.91;5071317;28;8898;-77
2023/06/08 03:58:41;;;;;;;;;28.80;28.80;;;;;19.33;50.30;99189.94;5088648;28;8836;-80
2023/06/08 04:01:11;;;;;;;;;30.20;30.20;;;;;19.30;50.49;99183.94;5071905;28;8872;-80
2023/06/08 04:03:42;;;;;;;;;21.20;21.20;;;;;19.35;50.26;99188.97;5071724;28;8880;-80
2023/06/08 04:06:11;;;;;;;;;16.60;15.80;;;;;19.31;50.58;99188.34;5085964;28;8844;-81
2023/06/08 04:08:41;;;;;;;;;17.40;15.40;;;;;19.42;50.35;99190.31;5071950;28;8839;-77
2023/06/08 04:11:12;;;;;;;;;26.60;25.40;;;;;19.51;50.03;99195.94;5110878;28;8844;-77
2023/06/08 04:13:42;;;;;;;;;11.80;11.80;;;;;19.51;49.84;99197.72;5057404;28;8979;-76
2023/06/08 04:16:15;;;;;;;;;13.80;13.80;;;;;19.58;49.44;99206.22;5105287;28;8970;-79
2023/06/08 04:18:49;;;;;;;;;14.40;14.00;;;;;19.66;49.33;99203.91;5101421;28;8880;-79
2023/06/08 04:21:25;;;;;;;;;25.20;24.20;;;;;19.72;49.26;99211.50;5070172;28;8851;-79
2023/06/08 04:23:58;;;;;;;;;20.60;20.00;;;;;19.74;49.14;99206.09;5086994;28;8867;-79
2023/06/08 04:26:32;;;;;;;;;39.00;34.40;;;;;19.79;49.30;99215.50;5067467;28;8865;-77
2023/06/08 04:29:03;;;;;;;;;24.00;19.40;;;;;19.87;49.16;99218.50;5051224;28;8869;-81
2023/06/08 04:31:35;;;;;;;;;13.20;13.20;;;;;19.75;49.18;99218.47;5018150;28;9024;-76
2023/06/08 04:34:04;;;;;;;;;13.40;13.40;;;;;19.82;49.38;99220.66;5067914;28;8877;-78
2023/06/08 04:36:35;;;;;;;;;13.00;12.00;;;;;19.84;48.89;99225.84;5072021;28;8851;-79
2023/06/08 04:39:04;;;;;;;;;12.00;12.00;;;;;19.92;48.85;99217.38;5087262;28;9616;-78
2023/06/08 04:41:35;;;;;;;;;13.80;13.80;;;;;20.00;48.28;99223.91;5069000;28;8900;-78
2023/06/08 04:44:05;;;;;;;;;12.00;11.20;;;;;20.03;48.35;99220.22;5069432;28;8952;-78
2023/06/08 04:46:37;;;;;;;;;13.80;13.20;;;;;20.10;48.32;99222.38;5070639;28;8960;-77
2023/06/08 04:49:07;;;;;;;;;12.80;12.80;;;;;20.23;48.63;99218.91;5052916;28;8849;-81
2023/06/08 04:51:40;;;;;;;;;14.60;13.60;;;;;20.32;48.14;99222.78;5067831;28;8857;-79
2023/06/08 04:54:13;;;;;;;;;15.60;15.40;;;;;20.40;47.91;99215.13;5085785;28;8850;-78
2023/06/08 04:56:45;;;;;;;;;13.40;13.40;;;;;20.54;47.58;99222.19;5102681;28;8945;-79
2023/06/08 04:59:15;;;;;;;;;14.80;14.80;;;;;20.63;47.65;99216.22;5068687;28;8946;-78
2023/06/08 05:01:47;;;;;;;;;13.40;13.40;;;;;20.71;47.67;99227.25;5068006;28;8861;-78
2023/06/08 05:04:16;;;;;;;;;11.80;11.80;;;;;20.79;47.39;99230.25;5051695;28;8842;-78
2023/06/08 05:06:45;;;;;;;;;12.80;12.80;;;;;20.84;47.37;99224.56;5065405;28;8821;-78
2023/06/08 05:09:13;;;;;;;;;13.80;13.00;;;;;20.97;47.40;99224.63;5051414;28;8857;-79
2023/06/08 05:11:44;;;;;;;;;13.40;12.40;;;;;21.05;47.18;99225.81;5029941;28;8858;-79
2023/06/08 05:14:13;;;;;;;;;13.20;13.20;;;;;21.15;47.02;99233.19;5056217;28;9631;-79
2023/06/08 05:16:42;;;;;;;;;11.20;11.20;;;;;21.22;46.77;99232.66;5018495;28;8981;-78
2023/06/08 05:19:13;;;;;;;;;14.00;14.00;;;;;21.30;46.13;99234.78;5028648;28;8960;-80
2023/06/08 05:21:42;;;;;;;;;14.80;14.80;;;;;21.28;46.13;99230.50;5019331;28;8867;-79
2023/06/08 05:24:11;;;;;;;;;11.00;11.00;;;;;21.37;45.89;99230.72;5027609;28;8842;-80
2023/06/08 05:26:41;;;;;;;;;14.40;14.00;;;;;21.43;46.07;99232.94;5012042;28;8846;-80
2023/06/08 05:29:12;;;;;;;;;12.60;12.60;;;;;21.51;45.96;99243.09;5024773;28;9069;-82
2023/06/08 05:31:41;;;;;;;;;15.80;14.60;;;;;21.53;45.77;99242.97;5034795;28;8883;-78
2023/06/08 05:34:10;;;;;;;;;13.20;13.20;;;;;21.61;45.37;99246.81;5040150;28;8862;-80
2023/06/08 05:36:39;;;;;;;;;13.20;13.20;;;;;21.67;44.72;99250.03;5043999;28;8846;-78
2023/06/08 05:39:08;;;;;;;;;15.60;15.60;;;;;21.82;44.68;99249.78;5027367;28;8881;-80
2023/06/08 05:41:37;;;;;;;;;14.20;14.00;;;;;21.91;44.65;99250.94;5044268;28;8991;-79
2023/06/08 05:44:06;;;;;;;;;13.20;13.00;;;;;22.04;44.58;99254.41;5047118;28;8886;-80
2023/06/08 05:46:36;;;;;;;;;15.20;15.20;;;;;22.22;44.37;99252.22;5060194;28;8858;-80
2023/06/08 05:49:05;;;;;;;;;12.60;11.20;;;;;22.26;43.35;99260.91;5022680;28;8840;-78
2023/06/08 05:51:35;;;;;;;;;15.20;14.80;;;;;22.19;43.53;99255.09;5063018;28;9676;-81
2023/06/08 05:54:04;;;;;;;;;16.20;15.00;;;;;22.36;43.65;99258.41;5065696;28;8859;-79
2023/06/08 05:56:33;;;;;;;;;13.60;13.60;;;;;22.38;43.24;99253.78;5075444;28;8877;-78
2023/06/08 05:59:02;;;;;;;;;16.60;13.80;;;;;22.55;42.69;99258.72;5080829;28;8880;-80
2023/06/08 06:01:31;;;;;;;;;15.60;14.60;;;;;22.58;42.50;99246.91;5068157;28;8893;-82
2023/06/08 06:04:01;;;;;;;;;13.20;12.40;;;;;22.60;42.64;99251.19;5051606;28;8872;-81
2023/06/08 06:06:32;;;;;;;;;15.40;15.40;;;;;22.66;42.28;99252.53;5068206;28;8934;-80
2023/06/08 06:09:00;;;;;;;;;13.40;13.20;;;;;22.64;42.00;99246.44;5084331;28;8862;-80
2023/06/08 06:11:30;;;;;;;;;12.40;11.60;;;;;22.59;42.04;99245.94;5084781;28;9673;-81
2023/06/08 06:13:59;;;;;;;;;13.00;13.00;;;;;22.57;42.17;99253.25;5085258;28;8865;-83
2023/06/08 06:16:28;;;;;;;;;13.40;11.80;;;;;22.61;41.68;99250.19;5067137;28;8870;-79
2023/06/08 06:18:58;;;;;;;;;15.20;14.20;;;;;22.74;41.94;99249.28;5084899;28;8912;-81
2023/06/08 06:21:28;;;;;;;;;13.40;12.20;;;;;22.77;41.70;99249.91;5051098;28;8846;-80
2023/06/08 06:23:57;;;;;;;;;12.60;12.60;;;;;22.64;41.63;99248.25;5083965;28;8854;-79
2023/06/08 06:26:26;;;;;;;;;11.40;11.20;;;;;22.70;42.03;99248.66;5067723;28;8873;-78
2023/06/08 06:28:55;;;;;;;;;12.40;12.00;;;;;22.70;41.90;99248.66;5049661;28;8854;-81
2023/06/08 06:31:24;;;;;;;;;11.40;11.40;;;;;22.86;42.01;99252.81;5067370;28;8845;-80
2023/06/08 06:33:53;;;;;;;;;12.60;11.80;;;;;22.78;41.49;99250.75;5049208;28;8880;-81
2023/06/08 06:36:23;;;;;;;;;15.80;12.00;;;;;22.74;41.67;99265.34;5059474;28;8926;-82
2023/06/08 06:38:54;;;;;;;;;15.00;14.00;;;;;22.89;41.80;99255.31;5032738;28;8857;-81
2023/06/08 06:41:23;;;;;;;;;14.40;14.40;;;;;22.95;41.42;99246.78;5051325;28;8873;-81
2023/06/08 06:43:52;;;;;;;;;13.00;12.20;;;;;23.09;41.32;99248.38;5050621;28;9008;-81
2023/06/08 06:46:22;;;;;;;;;13.60;13.60;;;;;23.19;41.25;99247.56;5053084;28;8842;-80
2023/06/08 06:48:51;;;;;;;;;14.20;13.60;;;;;23.31;40.79;99242.19;5057670;28;8861;-84
2023/06/08 06:51:21;;;;;;;;;13.20;12.40;;;;;23.34;40.68;99242.81;5049348;28;8888;-84
2023/06/08 06:53:50;;;;;;;;;13.60;13.40;;;;;23.38;40.14;99246.97;5048942;28;8915;-82
2023/06/08 06:56:20;;;;;;;;;12.20;12.20;;;;;23.44;40.01;99244.78;5065188;28;8880;-82
2023/06/08 06:58:49;;;;;;;;;12.60;12.60;;;;;23.46;39.64;99238.31;5068477;28;8857;-82
2023/06/08 07:01:18;;;;;;;;;12.40;12.40;;;;;23.54;39.36;99238.56;5052077;28;8895;-82
2023/06/08 07:03:48;;;;;;;;;12.60;12.00;;;;;23.61;39.30;99235.41;5035162;28;8849;-83
2023/06/08 07:06:21;;;;;;;;;9.40;9.40;;;;;23.61;38.58;99241.63;5036293;28;8861;-82
2023/06/08 07:08:50;;;;;;;;;13.60;12.00;;;;;23.60;39.04;99239.06;5036220;28;8863;-82
2023/06/08 07:11:20;;;;;;;;;10.20;10.20;;;;;23.69;38.95;99241.84;5052924;28;8850;-81
2023/06/08 07:13:49;;;;;;;;;11.60;11.00;;;;;23.84;38.63;99239.75;5074240;28;8857;-81
2023/06/08 07:16:21;;;;;;;;;12.20;12.20;;;;;23.94;38.54;99239.84;5056819;28;8837;-81
2023/06/08 07:18:54;;;;;;;;;11.60;11.60;;;;;23.97;38.09;99240.44;5055274;28;8873;-83
2023/06/08 07:21:23;;;;;;;;;11.20;11.20;;;;;24.06;37.75;99238.84;5052666;28;8845;-82
2023/06/08 07:24:00;;;;;;;;;14.60;13.60;;;;;24.01;37.23;99233.00;5051811;28;8826;-81
2023/06/08 07:26:51;;;;;;;;;12.00;11.40;;;;;24.08;38.03;99242.25;5048254;28;8844;-82
2023/06/08 07:29:20;;;;;;;;;14.60;13.60;;;;;24.25;37.01;99237.38;5032832;28;8996;-83
2023/06/08 07:31:49;;;;;;;;;14.20;14.00;;;;;24.26;37.48;99233.69;5048989;28;8865;-82
2023/06/08 07:34:20;;;;;;;;;13.80;13.80;;;;;24.35;37.09;99238.28;5081436;28;8864;-82
2023/06/08 07:36:50;;;;;;;;;14.80;14.60;;;;;24.34;37.52;99237.44;5064612;28;8841;-84
2023/06/08 07:39:19;;;;;;;;;14.20;14.20;;;;;24.45;37.97;99238.38;5064123;28;8866;-82
2023/06/08 07:41:48;;;;;;;;;14.60;14.20;;;;;24.66;37.72;99228.50;5073310;28;8995;-79
2023/06/08 07:44:18;;;;;;;;;13.80;13.80;;;;;24.76;36.75;99230.44;5098441;28;8870;-83
2023/06/08 07:46:48;;;;;;;;;13.40;12.80;;;;;24.82;37.09;99240.66;5070100;28;8854;-82
2023/06/08 07:49:17;;;;;;;;;12.60;12.60;;;;;24.88;36.79;99229.38;5068133;28;8858;-83
2023/06/08 07:51:47;;;;;;;;;14.20;13.60;;;;;25.09;37.01;99240.09;5070173;28;8854;-79
2023/06/08 07:54:19;;;;;;;;;13.00;13.00;;;;;24.99;36.43;99236.53;5048964;28;8857;-83
2023/06/08 07:56:48;;;;;;;;;12.80;12.80;;;;;25.15;36.70;99241.41;4999220;28;8877;-81
2023/06/08 07:59:18;;;;;;;;;11.80;11.80;;;;;24.97;36.65;99236.66;5032910;28;9014;-86
2023/06/08 08:01:48;;;;;;;;;8.80;7.60;;;;;25.07;36.53;99229.47;5033070;28;9078;-83
2023/06/08 08:04:17;;;;;;;;;13.00;11.00;;;;;25.01;36.51;99224.63;5060715;28;8846;-81
2023/06/08 08:06:46;;;;;;;;;11.60;11.60;;;;;25.06;36.29;99226.94;5080277;28;8862;-85
2023/06/08 08:09:15;;;;;;;;;14.00;12.60;;;;;25.21;36.25;99224.72;5053724;28;8842;-82
2023/06/08 08:11:45;;;;;;;;;11.00;10.40;;;;;25.26;36.53;99223.34;5070225;28;8866;-82
2023/06/08 08:14:13;;;;;;;;;11.20;11.20;;;;;25.30;36.03;99223.94;5068176;28;8908;-83
2023/06/08 08:16:44;;;;;;;;;12.00;12.00;;;;;25.28;36.42;99231.28;5067486;28;8855;-84
2023/06/08 08:19:13;;;;;;;;;11.80;10.80;;;;;25.46;36.31;99234.25;5068366;28;8864;-84
2023/06/08 08:21:43;;;;;;;;;14.00;13.00;;;;;25.45;36.71;99224.44;5050943;28;9562;-83
2023/06/08 08:24:11;;;;;;;;;11.80;11.60;;;;;25.70;36.26;99228.53;5050929;28;8864;-83
2023/06/08 08:26:41;;;;;;;;;14.20;14.20;;;;;25.85;36.39;99224.44;5067263;28;8843;-82
2023/06/08 08:29:10;;;;;;;;;12.40;12.40;;;;;25.93;35.89;99226.47;5067476;28;8975;-84
2023/06/08 08:31:39;;;;;;;;;13.20;13.20;;;;;25.94;35.97;99230.84;5017290;28;8847;-84
2023/06/08 08:34:11;;;;;;;;;10.60;10.60;;;;;26.08;35.70;99230.47;5050693;28;8902;-83
2023/06/08 08:36:40;;;;;;;;;14.00;12.40;;;;;25.95;36.07;99224.50;5050812;28;8843;-81
2023/06/08 08:39:10;;;;;;;;;10.40;10.40;;;;;25.86;36.50;99226.13;5050241;28;8974;-83
2023/06/08 08:41:42;;;;;;;;;15.20;14.00;;;;;25.99;36.48;99222.38;5050848;28;8882;-83
2023/06/08 08:44:15;;;;;;;;;11.80;11.80;;;;;26.01;36.85;99220.38;5050665;28;8867;-83
2023/06/08 08:46:48;;;;;;;;;13.00;13.00;;;;;25.77;37.07;99218.03;5049483;28;8866;-82
2023/06/08 08:49:21;;;;;;;;;14.40;14.40;;;;;25.98;36.74;99213.41;5063966;28;8903;-82
2023/06/08 08:51:52;;;;;;;;;15.20;14.00;;;;;26.07;36.87;99220.66;5051242;28;9651;-83
2023/06/08 08:54:31;;;;;;;;;13.60;13.60;;;;;26.12;36.62;99216.72;5049372;28;8869;-82
2023/06/08 08:57:02;;;;;;;;;13.40;13.40;;;;;26.16;36.25;99228.91;5031171;28;8971;-82
2023/06/08 08:59:32;;;;;;;;;17.40;15.00;;;;;26.16;36.38;99226.22;5047001;28;8926;-82
2023/06/08 09:02:03;;;;;;;;;13.20;13.00;;;;;26.21;36.31;99218.53;5063659;28;8837;-83
2023/06/08 09:04:33;;;;;;;;;12.40;12.40;;;;;26.02;36.66;99214.88;5047043;28;8987;-85
2023/06/08 09:07:02;;;;;;;;;13.40;12.40;;;;;26.10;36.79;99216.84;5046960;28;8844;-82
2023/06/08 09:09:31;;;;;;;;;15.00;15.00;;;;;26.18;36.64;99218.84;5048225;28;8972;-82
2023/06/08 09:12:01;;;;;;;;;18.20;15.80;;;;;26.15;37.25;99211.03;5029111;28;8962;-83
2023/06/08 09:14:30;;;;;;;;;15.20;14.00;;;;;26.31;36.32;99216.72;5046982;28;8860;-82
2023/06/08 09:16:59;;;;;;;;;15.80;15.40;;;;;26.45;35.99;99213.56;5079890;28;8857;-85
2023/06/08 09:19:29;;;;;;;;;15.40;15.20;;;;;26.52;35.86;99216.59;5063348;28;8857;-81
2023/06/08 09:22:01;;;;;;;;;15.00;14.00;;;;;26.31;36.57;99223.97;5048394;28;9611;-83
2023/06/08 09:24:30;;;;;;;;;14.80;14.20;;;;;26.45;36.42;99215.44;5077550;28;8850;-81
2023/06/08 09:27:00;;;;;;;;;13.60;12.20;;;;;26.66;35.89;99221.56;5050283;28;8897;-85
2023/06/08 09:29:32;;;;;;;;;14.00;14.00;;;;;26.81;36.19;99207.59;5082099;28;8842;-80
2023/06/08 09:32:02;;;;;;;;;14.40;14.40;;;;;26.91;35.62;99212.97;5069386;28;8957;-83
2023/06/08 09:34:33;;;;;;;;;13.60;12.40;;;;;26.89;35.27;99207.75;5068206;28;8854;-84
2023/06/08 09:37:08;;;;;;;;;14.60;14.60;;;;;27.02;35.01;99211.00;5066891;28;8830;-83
2023/06/08 09:39:41;;;;;;;;;15.00;14.60;;;;;26.86;35.72;99208.88;5083734;28;8979;-83
2023/06/08 09:42:10;;;;;;;;;14.80;14.80;;;;;26.86;35.84;99205.34;5100199;28;8838;-82
2023/06/08 09:44:39;;;;;;;;;13.80;13.80;;;;;26.99;35.11;99207.72;5032645;28;8866;-83
2023/06/08 09:47:22;;;;;;;;;13.40;13.40;;;;;27.19;34.82;99197.72;5100365;28;8842;-82
2023/06/08 09:49:52;;;;;;;;;14.20;13.00;;;;;27.13;35.45;99201.03;5066401;28;8881;-81
2023/06/08 09:52:24;;;;;;;;;12.60;12.60;;;;;27.26;35.22;99193.44;5066531;28;8862;-83
2023/06/08 09:54:53;;;;;;;;;15.60;13.80;;;;;27.30;35.14;99191.31;5066178;28;8858;-81
2023/06/08 09:57:23;;;;;;;;;12.80;12.60;;;;;27.36;35.07;99188.00;5068082;28;8846;-82
2023/06/08 09:59:57;;;;;;;;;13.00;12.60;;;;;27.52;34.89;99182.81;5082651;28;8879;-83
2023/06/08 10:02:31;;;;;;;;;17.60;16.40;;;;;27.56;34.57;99178.81;5049535;28;8964;-82
2023/06/08 10:05:09;;;;;;;;;13.40;13.40;;;;;27.52;34.67;99180.09;5082441;28;8878;-82
2023/06/08 10:07:43;;;;;;;;;15.20;15.20;;;;;27.46;35.23;99183.41;5044722;28;9989;-82
2023/06/08 10:10:16;;;;;;;;;12.00;11.80;;;;;27.54;35.20;99177.25;5045481;28;8860;-82
2023/06/08 10:12:46;;;;;;;;;14.20;14.20;;;;;27.68;33.95;99182.16;5032544;28;8828;-81
2023/06/08 10:15:15;;;;;;;;;20.00;18.20;;;;;27.86;34.06;99173.25;5049629;28;8835;-80
2023/06/08 10:17:46;;;;;;;;;14.80;14.20;;;;;27.84;34.34;99178.81;5044085;28;8883;-81
2023/06/08 10:20:16;;;;;;;;;14.00;14.00;;;;;27.91;33.54;99171.81;5051642;28;8847;-83
2023/06/08 10:22:48;;;;;;;;;15.00;14.40;;;;;27.98;33.29;99161.22;5033080;28;8848;-83
2023/06/08 10:25:21;;;;;;;;;14.00;14.00;;;;;27.74;33.18;99175.31;5015917;28;8998;-82
2023/06/08 10:27:51;;;;;;;;;16.20;14.40;;;;;27.78;33.68;99163.19;5049780;28;8901;-81
2023/06/08 10:30:33;;;;;;;;;15.20;14.60;;;;;27.93;33.69;99160.81;5065957;28;8843;-82
2023/06/08 10:33:09;;;;;;;;;15.20;14.00;;;;;27.76;33.63;99167.91;5012471;28;8884;-82
2023/06/08 10:35:40;;;;;;;;;12.20;10.00;;;;;27.65;33.91;99158.19;4996033;28;9049;-84
2023/06/08 10:38:12;;;;;;;;;13.20;12.80;;;;;27.62;33.73;99153.09;5028533;28;8882;-83
2023/06/08 10:40:45;;;;;;;;;13.00;12.60;;;;;27.81;34.48;99152.09;5029068;28;8873;-82
2023/06/08 10:43:15;;;;;;;;;11.00;10.80;;;;;27.82;33.59;99154.66;5028883;28;8853;-81
2023/06/08 10:46:04;;;;;;;;;12.80;12.80;;;;;28.06;33.17;99142.38;5044594;28;9053;-81
2023/06/08 10:48:37;;;;;;;;;15.20;14.00;;;;;27.86;33.83;99144.38;5068528;28;8852;-83
2023/06/08 10:51:11;;;;;;;;;14.60;14.60;;;;;27.96;32.72;99147.84;5085460;28;8859;-83
2023/06/08 10:53:49;;;;;;;;;13.20;13.20;;;;;28.14;32.96;99139.78;5067561;28;8892;-83
2023/06/08 10:56:18;;;;;;;;;14.20;14.20;;;;;28.18;32.88;99141.16;5031548;28;8863;-83
2023/06/08 10:58:51;;;;;;;;;10.80;9.80;;;;;28.29;32.52;99141.91;5031514;28;8835;-83
2023/06/08 11:01:22;;;;;;;;;16.00;15.40;;;;;28.31;32.80;99143.47;5031498;28;8961;-82
2023/06/08 11:03:52;;;;;;;;;15.20;14.40;;;;;28.43;32.44;99129.72;5017433;28;9101;-81
2023/06/08 11:06:20;;;;;;;;;15.20;15.00;;;;;28.55;32.32;99129.25;5027877;28;8882;-83
2023/06/08 11:08:51;;;;;;;;;13.00;11.80;;;;;28.68;32.01;99128.88;5028506;28;9058;-83
2023/06/08 11:11:20;;;;;;;;;15.80;13.60;;;;;28.69;31.40;99119.78;5048287;28;9000;-82
2023/06/08 11:13:52;;;;;;;;;16.40;16.40;;;;;28.80;31.45;99126.75;5031279;28;8850;-85
2023/06/08 11:16:21;;;;;;;;;15.80;14.60;;;;;28.92;30.94;99125.47;5025891;28;8866;-80
2023/06/08 11:18:52;;;;;;;;;11.60;11.60;;;;;28.94;31.01;99123.44;5051514;28;8864;-83
2023/06/08 11:21:24;;;;;;;;;12.80;11.20;;;;;29.12;31.13;99115.25;5030990;28;8842;-83
2023/06/08 11:23:55;;;;;;;;;15.60;12.20;;;;;29.05;30.77;99111.50;5029924;28;8858;-84
2023/06/08 11:26:24;;;;;;;;;11.80;11.00;;;;;28.93;31.26;99108.25;5031885;28;8866;-81
2023/06/08 11:28:53;;;;;;;;;15.00;13.40;;;;;29.14;30.64;99110.53;5051428;28;8864;-83
2023/06/08 11:31:22;;;;;;;;;11.00;11.00;;;;;29.02;30.14;99111.81;5050451;28;8844;-82
2023/06/08 11:33:53;;;;;;;;;14.40;14.40;;;;;29.10;30.43;99103.75;5050608;28;9721;-82
2023/06/08 11:36:23;;;;;;;;;11.60;11.60;;;;;29.18;30.59;99106.50;5061343;28;8852;-82
2023/06/08 11:38:52;;;;;;;;;13.00;13.00;;;;;29.20;29.77;99103.66;5053633;28;8858;-82
2023/06/08 11:41:23;;;;;;;;;14.80;14.80;;;;;29.30;30.22;99104.34;5086152;28;8857;-82